Time;durP1;ratioP1;P1;durP2;ratioP2;P2;SDS_P1;SDS_P2;PMS_P1;PMS_P2;Temp;Humidity;BMP_temperature;BMP_pressure;BME280_temperature;BME280_humidity;BME280_pressure;Samples;Min_cycle;Max_cycle;Signal;HPM_P1;HPM_P2
2023/07/04 00:01:18;;;;;;;3.85;1.48;;;25.40;87.30;;;;;;5097647;27;20197;-83
2023/07/04 00:03:50;;;;;;;0.90;0.73;;;25.30;87.40;;;;;;5099681;27;20270;-83
2023/07/04 00:06:21;;;;;;;1.65;0.80;;;25.20;87.40;;;;;;5118657;27;20305;-82
2023/07/04 00:08:50;;;;;;;2.45;1.08;;;25.30;87.40;;;;;;5104327;27;20206;-83
2023/07/04 00:11:20;;;;;;;1.80;1.20;;;25.20;87.20;;;;;;5093384;27;20201;-82
2023/07/04 00:13:50;;;;;;;0.60;0.60;;;25.20;87.60;;;;;;5115673;27;20711;-83
2023/07/04 00:16:19;;;;;;;1.77;1.00;;;25.20;87.60;;;;;;5101383;27;20698;-83
2023/07/04 00:18:48;;;;;;;1.58;1.02;;;25.20;87.60;;;;;;5098159;27;20655;-83
2023/07/04 00:21:17;;;;;;;2.47;0.52;;;25.20;87.30;;;;;;5101269;27;20192;-82
2023/07/04 00:23:52;;;;;;;0.60;0.50;;;25.20;87.20;;;;;;5119840;27;20192;-83
2023/07/04 00:26:23;;;;;;;1.10;0.90;;;25.10;86.90;;;;;;5095354;27;20630;-83
2023/07/04 00:28:52;;;;;;;0.98;0.98;;;25.10;86.60;;;;;;5101956;27;20190;-82
2023/07/04 00:31:23;;;;;;;0.73;0.50;;;25.10;86.50;;;;;;5100424;27;20198;-82
2023/07/04 00:33:53;;;;;;;1.20;1.10;;;25.10;86.70;;;;;;5103420;27;20278;-83
2023/07/04 00:36:22;;;;;;;0.50;0.50;;;25.10;86.70;;;;;;5109613;27;20196;-83
2023/07/04 00:38:56;;;;;;;0.63;0.55;;;25.10;86.70;;;;;;5101813;27;20193;-82
2023/07/04 00:41:28;;;;;;;2.25;1.15;;;25.00;86.90;;;;;;5102899;27;20593;-83
2023/07/04 00:43:59;;;;;;;1.65;1.00;;;25.00;86.70;;;;;;5098903;27;20192;-83
2023/07/04 00:46:39;;;;;;;1.33;1.13;;;25.00;86.70;;;;;;5103943;27;20198;-82
2023/07/04 00:49:21;;;;;;;0.77;0.77;;;25.00;86.80;;;;;;5111026;27;20229;-83
2023/07/04 00:52:00;;;;;;;0.30;0.30;;;25.00;86.90;;;;;;5101894;27;20185;-82
2023/07/04 00:54:35;;;;;;;2.75;1.08;;;25.00;87.00;;;;;;5102412;27;20648;-83
2023/07/04 00:57:06;;;;;;;1.05;0.93;;;25.00;87.70;;;;;;5110063;27;20279;-81
2023/07/04 00:59:43;;;;;;;1.00;0.45;;;24.90;87.50;;;;;;5115053;27;20260;-81
2023/07/04 01:02:12;;;;;;;0.68;0.60;;;25.00;87.40;;;;;;5104118;27;20207;-83
2023/07/04 01:04:42;;;;;;;1.02;0.80;;;25.00;87.40;;;;;;5102641;27;20198;-83
2023/07/04 01:07:20;;;;;;;0.47;0.47;;;24.90;87.20;;;;;;5104086;27;20222;-83
2023/07/04 01:09:55;;;;;;;3.95;1.35;;;24.90;87.20;;;;;;5113755;27;20553;-82
2023/07/04 01:12:29;;;;;;;0.52;0.52;;;24.90;87.00;;;;;;5110218;27;20644;-82
2023/07/04 01:14:59;;;;;;;1.40;0.82;;;24.90;87.00;;;;;;5111087;27;20238;-83
2023/07/04 01:17:28;;;;;;;0.98;0.82;;;24.90;86.90;;;;;;5098037;27;20233;-81
2023/07/04 01:19:57;;;;;;;1.00;0.63;;;24.90;86.90;;;;;;5112677;27;20196;-84
2023/07/04 01:22:33;;;;;;;2.05;1.40;;;24.80;86.70;;;;;;5096340;27;20314;-84
2023/07/04 01:25:12;;;;;;;0.70;0.63;;;24.80;86.70;;;;;;5105688;27;20196;-83
2023/07/04 01:27:43;;;;;;;0.40;0.40;;;24.80;86.80;;;;;;5109626;27;20215;-83
2023/07/04 01:30:13;;;;;;;0.55;0.55;;;24.80;87.20;;;;;;5091450;27;20273;-82
2023/07/04 01:32:44;;;;;;;1.35;0.77;;;24.80;87.60;;;;;;5098991;27;20220;-83
2023/07/04 01:35:14;;;;;;;1.33;1.15;;;24.80;87.50;;;;;;5113861;27;20637;-84
2023/07/04 01:37:42;;;;;;;0.85;0.60;;;24.70;87.40;;;;;;5119209;27;20196;-82
2023/07/04 01:40:12;;;;;;;1.38;1.10;;;24.70;87.30;;;;;;5115975;27;20560;-84
2023/07/04 01:42:42;;;;;;;1.02;0.73;;;24.70;87.30;;;;;;5117291;27;20248;-83
2023/07/04 01:45:11;;;;;;;0.40;0.40;;;24.70;87.40;;;;;;5119448;27;20644;-83
2023/07/04 01:47:40;;;;;;;0.93;0.82;;;24.70;87.30;;;;;;5099673;27;20208;-83
2023/07/04 01:50:10;;;;;;;0.50;0.40;;;24.60;87.30;;;;;;5082750;28;20725;-82
2023/07/04 01:52:39;;;;;;;1.58;1.30;;;24.60;87.30;;;;;;5082800;28;20766;-83
2023/07/04 01:55:09;;;;;;;1.98;1.27;;;24.60;87.30;;;;;;5085069;28;20200;-82
2023/07/04 01:57:38;;;;;;;2.05;1.23;;;24.70;87.50;;;;;;5081734;28;20205;-84
2023/07/04 02:00:10;;;;;;;0.35;0.35;;;24.60;87.40;;;;;;5083674;28;20192;-82
2023/07/04 02:02:39;;;;;;;1.83;1.30;;;24.60;87.50;;;;;;5080751;28;20209;-82
2023/07/04 02:05:10;;;;;;;2.65;1.30;;;24.60;87.60;;;;;;5083507;28;20247;-83
2023/07/04 02:07:38;;;;;;;0.60;0.60;;;24.60;88.00;;;;;;5079975;28;20226;-82
2023/07/04 02:10:08;;;;;;;1.35;0.93;;;24.50;87.90;;;;;;5083425;28;20193;-84
2023/07/04 02:12:36;;;;;;;0.82;0.80;;;24.50;88.20;;;;;;5081904;28;20212;-83
2023/07/04 02:15:07;;;;;;;1.08;0.50;;;24.50;88.00;;;;;;5082141;28;20838;-83
2023/07/04 02:17:38;;;;;;;1.08;0.98;;;24.50;88.10;;;;;;5083405;28;20209;-84
2023/07/04 02:20:08;;;;;;;0.77;0.75;;;24.50;88.00;;;;;;5084281;28;20196;-83
2023/07/04 02:22:36;;;;;;;1.05;0.50;;;24.50;88.20;;;;;;5080622;28;20196;-82
2023/07/04 02:25:05;;;;;;;0.95;0.75;;;24.40;88.10;;;;;;5080202;28;20198;-82
2023/07/04 02:27:34;;;;;;;1.75;0.85;;;24.40;88.40;;;;;;5080474;28;20193;-81
2023/07/04 02:30:02;;;;;;;0.95;0.57;;;24.40;88.30;;;;;;5081636;28;20189;-81
2023/07/04 02:32:32;;;;;;;1.42;1.02;;;24.30;88.30;;;;;;5079027;28;20221;-82
2023/07/04 02:35:01;;;;;;;0.77;0.77;;;24.30;88.50;;;;;;5083962;28;20732;-82
2023/07/04 02:37:29;;;;;;;0.88;0.82;;;24.30;88.40;;;;;;5077652;28;20201;-82
2023/07/04 02:39:58;;;;;;;0.80;0.80;;;24.30;88.50;;;;;;5083055;28;20194;-82
2023/07/04 02:42:29;;;;;;;0.60;0.50;;;24.30;88.60;;;;;;5079779;28;20193;-84
2023/07/04 02:44:57;;;;;;;0.50;0.50;;;24.30;88.60;;;;;;5080720;28;20208;-82
2023/07/04 02:47:26;;;;;;;0.55;0.55;;;24.30;88.80;;;;;;5078580;28;20200;-82
2023/07/04 02:49:56;;;;;;;2.28;0.80;;;24.30;89.80;;;;;;5080639;28;20220;-83
2023/07/04 02:52:25;;;;;;;0.40;0.40;;;24.20;88.90;;;;;;5080446;28;20193;-82
2023/07/04 02:54:54;;;;;;;1.70;1.40;;;24.20;88.90;;;;;;5083347;28;20209;-84
2023/07/04 02:57:23;;;;;;;0.98;0.90;;;24.20;89.40;;;;;;5079212;28;20200;-84
2023/07/04 02:59:52;;;;;;;0.57;0.50;;;24.20;89.80;;;;;;5081924;28;20208;-84
2023/07/04 03:02:21;;;;;;;2.42;1.40;;;24.20;90.00;;;;;;5079593;28;20246;-84
2023/07/04 03:04:51;;;;;;;0.40;0.40;;;24.10;90.20;;;;;;5083590;28;20225;-84
2023/07/04 03:07:22;;;;;;;1.10;1.00;;;24.10;90.50;;;;;;5080681;28;20246;-83
2023/07/04 03:09:50;;;;;;;1.77;1.67;;;24.10;90.90;;;;;;5081811;28;20220;-81
2023/07/04 03:12:18;;;;;;;1.33;1.20;;;24.10;90.60;;;;;;5081656;28;20654;-82
2023/07/04 03:14:47;;;;;;;1.42;1.25;;;24.10;90.80;;;;;;5082438;28;20205;-82
2023/07/04 03:17:15;;;;;;;3.08;1.40;;;24.10;91.00;;;;;;5085451;28;20203;-82
2023/07/04 03:19:43;;;;;;;1.95;1.55;;;24.10;91.20;;;;;;5082157;28;20284;-83
2023/07/04 03:22:12;;;;;;;2.17;0.95;;;24.00;91.10;;;;;;5079736;28;20202;-83
2023/07/04 03:24:42;;;;;;;0.70;0.70;;;24.00;91.20;;;;;;5081055;27;20689;-83
2023/07/04 03:27:10;;;;;;;10.80;1.48;;;24.00;91.30;;;;;;5076522;28;20267;-83
2023/07/04 03:29:38;;;;;;;1.90;0.90;;;24.00;91.30;;;;;;5076861;28;20198;-82
2023/07/04 03:32:07;;;;;;;1.02;0.68;;;24.00;91.20;;;;;;5077673;28;20197;-83
2023/07/04 03:34:35;;;;;;;1.30;1.05;;;24.00;91.30;;;;;;5084415;28;20190;-83
2023/07/04 03:37:04;;;;;;;0.90;0.90;;;24.00;91.30;;;;;;5085550;27;20194;-83
2023/07/04 03:39:33;;;;;;;1.38;1.25;;;24.00;91.40;;;;;;5085352;27;20201;-82
2023/07/04 03:42:02;;;;;;;1.33;1.23;;;24.00;91.50;;;;;;5084564;27;20197;-83
2023/07/04 03:44:31;;;;;;;0.63;0.60;;;24.00;91.50;;;;;;5085101;28;20227;-82
2023/07/04 03:46:59;;;;;;;1.63;1.13;;;24.10;91.50;;;;;;5084208;27;20203;-83
2023/07/04 03:49:27;;;;;;;8.40;1.70;;;24.00;91.60;;;;;;5085897;28;20197;-82
2023/07/04 03:51:56;;;;;;;1.02;0.93;;;24.00;91.70;;;;;;5083312;28;20197;-83
2023/07/04 03:54:24;;;;;;;2.88;1.17;;;24.00;91.80;;;;;;5086335;28;21486;-83
2023/07/04 03:56:52;;;;;;;1.17;0.90;;;24.10;91.80;;;;;;5084014;27;20202;-83
2023/07/04 03:59:22;;;;;;;1.27;0.90;;;24.10;91.80;;;;;;5086609;27;20597;-83
2023/07/04 04:01:51;;;;;;;1.92;0.90;;;24.10;91.70;;;;;;5083482;28;20193;-83
2023/07/04 04:04:20;;;;;;;0.63;0.63;;;24.10;91.80;;;;;;5085139;27;20219;-82
2023/07/04 04:06:51;;;;;;;1.23;0.70;;;24.10;92.00;;;;;;5082097;28;20225;-83
2023/07/04 04:09:19;;;;;;;1.20;0.77;;;24.00;91.90;;;;;;5086048;27;20189;-83
2023/07/04 04:11:48;;;;;;;6.00;1.65;;;24.10;92.10;;;;;;5083723;28;20639;-83
2023/07/04 04:14:16;;;;;;;2.65;1.77;;;24.10;92.20;;;;;;5084544;28;20202;-83
2023/07/04 04:16:46;;;;;;;0.80;0.80;;;24.10;92.30;;;;;;5083257;27;20942;-82
2023/07/04 04:19:14;;;;;;;0.75;0.75;;;24.10;92.50;;;;;;5081026;28;20297;-83
2023/07/04 04:21:43;;;;;;;1.08;0.80;;;24.10;92.50;;;;;;5080123;28;20213;-83
2023/07/04 04:24:11;;;;;;;0.80;0.80;;;24.10;92.40;;;;;;5082334;27;20242;-82
2023/07/04 04:26:40;;;;;;;1.17;0.95;;;24.20;92.40;;;;;;5083115;28;20198;-83
2023/07/04 04:29:08;;;;;;;1.05;1.00;;;24.10;92.20;;;;;;5083035;28;20211;-82
2023/07/04 04:31:37;;;;;;;1.60;0.77;;;24.20;92.20;;;;;;5082202;27;20189;-81
2023/07/04 04:34:08;;;;;;;0.40;0.40;;;24.20;92.10;;;;;;5081191;27;20280;-82
2023/07/04 04:36:37;;;;;;;3.88;1.15;;;24.30;92.00;;;;;;5084978;27;20200;-82
2023/07/04 04:39:06;;;;;;;1.50;1.27;;;24.30;92.00;;;;;;5080882;27;20193;-81
2023/07/04 04:41:36;;;;;;;1.10;0.93;;;24.40;92.20;;;;;;5081344;28;20198;-82
2023/07/04 04:44:05;;;;;;;0.70;0.70;;;24.50;92.40;;;;;;5084105;27;20261;-82
2023/07/04 04:46:34;;;;;;;1.02;0.93;;;24.50;92.50;;;;;;5082603;27;20205;-82
2023/07/04 04:49:03;;;;;;;2.80;0.73;;;24.50;92.50;;;;;;5084128;28;20285;-81
2023/07/04 04:51:33;;;;;;;1.08;0.82;;;24.60;92.70;;;;;;5081753;28;20202;-82
2023/07/04 04:54:02;;;;;;;3.17;1.92;;;24.60;92.60;;;;;;5085164;28;20198;-82
2023/07/04 04:56:33;;;;;;;0.60;0.60;;;24.70;93.00;;;;;;5084576;28;20201;-83
2023/07/04 04:59:03;;;;;;;1.17;1.08;;;24.80;93.10;;;;;;5086642;28;20519;-83
2023/07/04 05:01:31;;;;;;;1.13;0.90;;;24.80;92.70;;;;;;5081116;27;20673;-83
2023/07/04 05:04:00;;;;;;;0.60;0.60;;;24.90;92.50;;;;;;5082409;27;20221;-82
2023/07/04 05:06:28;;;;;;;1.50;1.30;;;25.00;92.50;;;;;;5080356;27;20225;-81
2023/07/04 05:08:58;;;;;;;1.63;1.25;;;25.00;92.40;;;;;;5084575;28;20196;-82
2023/07/04 05:11:28;;;;;;;0.95;0.30;;;25.00;92.30;;;;;;5081305;28;20193;-83
2023/07/04 05:13:56;;;;;;;0.73;0.70;;;25.10;92.20;;;;;;5082692;28;20204;-83
2023/07/04 05:16:24;;;;;;;0.47;0.40;;;25.20;92.10;;;;;;5085477;27;20208;-82
2023/07/04 05:18:53;;;;;;;0.75;0.75;;;25.20;92.00;;;;;;5084885;27;20207;-82
2023/07/04 05:21:23;;;;;;;0.90;0.68;;;25.30;91.90;;;;;;5080953;28;20670;-82
2023/07/04 05:23:52;;;;;;;0.70;0.70;;;25.40;91.90;;;;;;5082906;28;20451;-82
2023/07/04 05:26:24;;;;;;;1.27;1.17;;;25.40;91.80;;;;;;5081499;27;20876;-83
2023/07/04 05:28:54;;;;;;;0.55;0.55;;;25.40;91.70;;;;;;5093832;27;20196;-82
2023/07/04 05:31:25;;;;;;;1.75;0.90;;;25.50;91.70;;;;;;5089559;27;20578;-82
2023/07/04 05:33:54;;;;;;;0.60;0.60;;;25.60;91.60;;;;;;5100832;27;20195;-81
2023/07/04 05:36:24;;;;;;;0.70;0.70;;;25.60;91.50;;;;;;5082958;28;20208;-82
2023/07/04 05:38:55;;;;;;;1.70;0.68;;;25.60;91.40;;;;;;5083885;28;20208;-81
2023/07/04 05:41:26;;;;;;;1.38;0.73;;;25.70;91.30;;;;;;5080794;28;20193;-82
2023/07/04 05:43:55;;;;;;;1.67;0.90;;;25.70;91.20;;;;;;5081924;28;20216;-82
2023/07/04 05:46:23;;;;;;;1.08;0.90;;;25.80;91.20;;;;;;5082709;28;20247;-83
2023/07/04 05:48:52;;;;;;;0.55;0.55;;;25.80;91.00;;;;;;5083407;28;20204;-82
2023/07/04 05:51:21;;;;;;;0.88;0.82;;;25.80;90.80;;;;;;5081581;28;20214;-85
2023/07/04 05:53:51;;;;;;;0.82;0.82;;;25.80;90.70;;;;;;5083626;28;20557;-83
2023/07/04 05:56:22;;;;;;;0.60;0.60;;;25.90;90.70;;;;;;5080253;27;20401;-83
2023/07/04 05:58:54;;;;;;;0.85;0.85;;;26.00;90.60;;;;;;5082548;28;20549;-83
2023/07/04 06:01:25;;;;;;;1.95;0.80;;;26.00;90.40;;;;;;5082775;28;20597;-82
2023/07/04 06:03:54;;;;;;;1.13;1.02;;;26.10;90.40;;;;;;5082342;28;20651;-81
2023/07/04 06:06:25;;;;;;;1.60;0.82;;;26.10;90.40;;;;;;5080188;28;20241;-85
2023/07/04 06:08:54;;;;;;;0.30;0.30;;;26.20;90.40;;;;;;5084629;28;20192;-82
2023/07/04 06:11:26;;;;;;;1.02;0.80;;;26.20;90.20;;;;;;5080319;28;20197;-83
2023/07/04 06:13:56;;;;;;;0.95;0.95;;;26.30;90.20;;;;;;5084372;28;20832;-83
2023/07/04 06:16:25;;;;;;;1.30;1.20;;;26.40;90.20;;;;;;5083595;28;20290;-83
2023/07/04 06:18:53;;;;;;;1.25;0.85;;;26.40;89.60;;;;;;5085927;28;20202;-81
2023/07/04 06:21:24;;;;;;;1.05;0.70;;;26.50;89.60;;;;;;5081296;28;20662;-83
2023/07/04 06:24:10;;;;;;;0.65;0.65;;;26.60;89.70;;;;;;5081697;28;20543;-82
2023/07/04 06:26:39;;;;;;;1.45;0.98;;;26.70;89.70;;;;;;5083568;28;20232;-81
2023/07/04 06:29:09;;;;;;;1.15;0.70;;;26.80;89.50;;;;;;5082919;28;20650;-84
2023/07/04 06:31:41;;;;;;;0.65;0.60;;;26.90;88.80;;;;;;5082568;28;20722;-82
2023/07/04 06:34:11;;;;;;;1.80;1.15;;;27.00;89.10;;;;;;5083519;28;20270;-82
2023/07/04 06:36:40;;;;;;;0.98;0.90;;;27.00;88.60;;;;;;5080125;28;20209;-82
2023/07/04 06:39:08;;;;;;;1.00;0.90;;;27.20;88.10;;;;;;5083863;28;20199;-82
2023/07/04 06:41:37;;;;;;;0.85;0.85;;;27.30;88.00;;;;;;5082416;28;20193;-83
2023/07/04 06:44:07;;;;;;;0.73;0.65;;;27.30;87.60;;;;;;5084891;28;20212;-83
2023/07/04 06:46:36;;;;;;;1.08;0.57;;;27.40;87.60;;;;;;5082675;28;20212;-82
2023/07/04 06:49:05;;;;;;;1.05;0.98;;;27.50;87.50;;;;;;5084313;28;20208;-82
2023/07/04 06:51:33;;;;;;;0.80;0.77;;;27.60;86.90;;;;;;5081075;28;20224;-83
2023/07/04 06:54:02;;;;;;;5.75;1.50;;;27.70;86.50;;;;;;5083583;28;20194;-83
2023/07/04 06:56:31;;;;;;;1.15;0.75;;;27.80;86.60;;;;;;5082039;28;20555;-82
2023/07/04 06:58:59;;;;;;;1.95;1.20;;;27.80;85.90;;;;;;5082766;28;20208;-83
2023/07/04 07:01:30;;;;;;;1.45;0.95;;;27.90;85.20;;;;;;5082171;28;20189;-84
2023/07/04 07:03:59;;;;;;;1.77;0.90;;;28.00;84.30;;;;;;5080589;28;20201;-83
2023/07/04 07:06:28;;;;;;;1.65;1.55;;;28.10;84.60;;;;;;5080317;28;20248;-83
2023/07/04 07:08:57;;;;;;;0.55;0.55;;;28.10;84.60;;;;;;5085634;28;20190;-82
2023/07/04 07:11:25;;;;;;;0.70;0.70;;;28.20;84.50;;;;;;5084998;28;20206;-83
2023/07/04 07:13:54;;;;;;;1.13;0.68;;;28.30;84.40;;;;;;5087489;28;20197;-83
2023/07/04 07:16:25;;;;;;;2.03;0.95;;;28.40;84.10;;;;;;5087551;28;20196;-83
2023/07/04 07:18:56;;;;;;;2.70;0.95;;;28.40;83.80;;;;;;5088823;28;20194;-82
2023/07/04 07:21:27;;;;;;;0.85;0.63;;;28.40;83.00;;;;;;5084909;28;20205;-85
2023/07/04 07:23:56;;;;;;;1.00;0.77;;;28.50;83.00;;;;;;5088359;28;20720;-84
2023/07/04 07:26:27;;;;;;;0.70;0.52;;;28.60;83.00;;;;;;5085676;28;20298;-82
2023/07/04 07:28:56;;;;;;;1.60;1.33;;;28.60;82.70;;;;;;5088118;28;20190;-82
2023/07/04 07:31:28;;;;;;;0.60;0.60;;;28.70;82.80;;;;;;5086299;28;20201;-82
2023/07/04 07:34:04;;;;;;;0.57;0.57;;;28.80;82.80;;;;;;5086832;28;20189;-82
2023/07/04 07:36:37;;;;;;;1.02;1.00;;;28.80;82.50;;;;;;5085946;28;20233;-83
2023/07/04 07:39:08;;;;;;;2.67;1.58;;;28.90;82.10;;;;;;5084560;28;20196;-82
2023/07/04 07:41:39;;;;;;;2.47;1.13;;;29.00;81.90;;;;;;5086886;28;20186;-83
2023/07/04 07:44:08;;;;;;;0.55;0.50;;;29.00;81.10;;;;;;5088451;28;20198;-83
2023/07/04 07:46:37;;;;;;;1.02;0.90;;;29.00;80.50;;;;;;5085050;28;20267;-84
2023/07/04 07:49:07;;;;;;;1.13;0.85;;;29.10;80.80;;;;;;5086911;28;20197;-83
2023/07/04 07:51:37;;;;;;;0.88;0.85;;;29.10;80.50;;;;;;5086111;28;20201;-83
2023/07/04 07:54:07;;;;;;;0.60;0.60;;;29.20;80.20;;;;;;5086045;28;20224;-83
2023/07/04 07:56:40;;;;;;;1.33;0.70;;;29.30;79.90;;;;;;5084398;28;20201;-83
2023/07/04 07:59:09;;;;;;;1.10;1.00;;;29.30;79.10;;;;;;5086888;28;20275;-83
2023/07/04 08:01:38;;;;;;;1.40;0.70;;;29.40;78.90;;;;;;5087131;28;20212;-83
2023/07/04 08:04:07;;;;;;;1.33;0.63;;;29.40;77.90;;;;;;5085076;28;20208;-84
2023/07/04 08:06:39;;;;;;;0.52;0.52;;;29.40;76.90;;;;;;5084310;28;20244;-83
2023/07/04 08:09:10;;;;;;;1.98;0.95;;;29.50;77.30;;;;;;5088093;28;20196;-84
2023/07/04 08:11:39;;;;;;;1.15;0.50;;;29.50;76.90;;;;;;5084904;28;20205;-83
2023/07/04 08:14:07;;;;;;;0.80;0.70;;;29.60;77.30;;;;;;5085323;28;20190;-82
2023/07/04 08:16:44;;;;;;;0.95;0.75;;;29.60;76.90;;;;;;5084563;28;20244;-83
2023/07/04 08:19:16;;;;;;;0.63;0.63;;;29.70;76.70;;;;;;5085574;28;20189;-82
2023/07/04 08:21:44;;;;;;;0.63;0.60;;;29.70;74.70;;;;;;5079502;28;20193;-81
2023/07/04 08:24:14;;;;;;;1.52;1.00;;;29.80;74.30;;;;;;5085475;27;20200;-82
2023/07/04 08:26:45;;;;;;;2.35;0.45;;;29.80;74.80;;;;;;5083036;27;20225;-83
2023/07/04 08:29:14;;;;;;;0.80;0.73;;;29.90;74.60;;;;;;5086720;28;20190;-84
2023/07/04 08:31:43;;;;;;;0.30;0.30;;;29.90;74.80;;;;;;5085642;28;21941;-84
2023/07/04 08:34:12;;;;;;;0.95;0.85;;;30.00;74.50;;;;;;5086128;28;20202;-83
2023/07/04 08:36:44;;;;;;;3.35;0.73;;;30.00;74.50;;;;;;5084649;28;20193;-83
2023/07/04 08:39:12;;;;;;;1.63;0.75;;;30.00;72.50;;;;;;5082843;28;20270;-84
2023/07/04 08:41:46;;;;;;;1.08;0.88;;;30.10;73.10;;;;;;5082735;28;20569;-83
2023/07/04 08:44:20;;;;;;;0.73;0.73;;;30.10;73.20;;;;;;5085578;27;20196;-84
2023/07/04 08:46:50;;;;;;;0.77;0.47;;;30.20;73.60;;;;;;5084409;27;20419;-84
2023/07/04 08:49:28;;;;;;;1.13;0.77;;;30.20;73.00;;;;;;5083702;28;20193;-85
2023/07/04 08:52:02;;;;;;;0.70;0.70;;;30.30;72.70;;;;;;5081760;28;20197;-85
2023/07/04 08:54:31;;;;;;;2.25;1.05;;;30.30;72.70;;;;;;5081866;27;20298;-85
2023/07/04 08:57:04;;;;;;;0.98;0.80;;;30.30;72.40;;;;;;5081824;27;20202;-84
2023/07/04 08:59:40;;;;;;;0.52;0.52;;;30.30;71.90;;;;;;5084076;28;20201;-85
2023/07/04 09:02:30;;;;;;;0.73;0.73;;;30.40;72.10;;;;;;5084554;27;20220;-83
2023/07/04 09:05:10;;;;;;;1.65;1.27;;;30.50;72.20;;;;;;5083776;28;20280;-83
2023/07/04 09:07:47;;;;;;;0.73;0.70;;;30.50;69.70;;;;;;5086346;27;20344;-83
2023/07/04 09:10:30;;;;;;;2.03;1.45;;;30.50;70.00;;;;;;5094723;28;20185;-82
2023/07/04 09:12:59;;;;;;;2.47;1.48;;;30.60;69.60;;;;;;5087725;28;20317;-82
2023/07/04 09:15:31;;;;;;;0.85;0.60;;;30.60;69.30;;;;;;5088221;28;20189;-82
2023/07/04 09:18:07;;;;;;;1.30;0.77;;;30.70;69.70;;;;;;5086450;27;20919;-80
2023/07/04 09:20:57;;;;;;;1.08;0.43;;;30.70;69.20;;;;;;5092530;27;20282;-83
2023/07/04 09:23:26;;;;;;;0.77;0.75;;;30.80;68.30;;;;;;5086829;28;20193;-83
2023/07/04 09:25:57;;;;;;;0.95;0.80;;;30.80;68.60;;;;;;5086975;28;20212;-83
2023/07/04 09:28:27;;;;;;;0.80;0.75;;;30.90;67.80;;;;;;5076630;28;20694;-84
2023/07/04 09:30:59;;;;;;;0.80;0.80;;;31.00;68.30;;;;;;5084642;28;20189;-84
2023/07/04 09:33:29;;;;;;;0.60;0.55;;;31.10;67.70;;;;;;5082583;28;20230;-86
2023/07/04 09:35:58;;;;;;;0.77;0.77;;;31.10;66.70;;;;;;5082749;27;20284;-83
2023/07/04 09:38:48;;;;;;;1.13;0.95;;;31.20;66.80;;;;;;5081696;27;20292;-82
2023/07/04 09:41:16;;;;;;;0.40;0.38;;;31.30;66.90;;;;;;5082256;28;20196;-84
2023/07/04 09:43:45;;;;;;;1.55;0.68;;;31.30;66.60;;;;;;5081193;28;20219;-84
2023/07/04 09:46:20;;;;;;;0.93;0.80;;;31.40;67.90;;;;;;5080815;28;20201;-83
2023/07/04 09:48:49;;;;;;;2.55;0.85;;;31.50;67.40;;;;;;5081421;28;20674;-84
2023/07/04 09:51:29;;;;;;;2.38;1.15;;;31.50;66.40;;;;;;5080686;28;20206;-84
2023/07/04 09:54:18;;;;;;;1.48;0.95;;;31.50;65.30;;;;;;5080943;27;20250;-82
2023/07/04 09:56:47;;;;;;;3.03;1.50;;;31.60;65.30;;;;;;5082616;28;20618;-83
2023/07/04 09:59:17;;;;;;;1.30;1.08;;;31.60;64.10;;;;;;5085222;28;20642;-82
2023/07/04 10:01:47;;;;;;;0.65;0.65;;;31.70;65.10;;;;;;5092217;28;20185;-83
2023/07/04 10:04:26;;;;;;;0.43;0.43;;;31.80;65.20;;;;;;5087793;28;20310;-84
2023/07/04 10:06:59;;;;;;;1.08;0.98;;;31.90;63.90;;;;;;5092517;27;20231;-84
2023/07/04 10:09:29;;;;;;;0.70;0.65;;;31.90;63.10;;;;;;5082965;27;20193;-83
2023/07/04 10:12:12;;;;;;;0.52;0.52;;;31.90;63.30;;;;;;5080659;28;23052;-84
2023/07/04 10:14:47;;;;;;;0.40;0.40;;;32.00;63.90;;;;;;5081873;28;20202;-84
2023/07/04 10:17:18;;;;;;;1.23;0.70;;;32.10;63.70;;;;;;5079707;28;20193;-83
2023/07/04 10:19:48;;;;;;;1.55;0.95;;;32.20;63.90;;;;;;5080052;28;20190;-81
2023/07/04 10:22:30;;;;;;;0.90;0.55;;;32.20;64.20;;;;;;5080820;28;20212;-81
2023/07/04 10:25:01;;;;;;;0.73;0.73;;;32.20;63.90;;;;;;5082751;28;20200;-82
2023/07/04 10:27:34;;;;;;;1.02;0.73;;;32.20;63.90;;;;;;5081033;28;20209;-83
2023/07/04 10:30:07;;;;;;;0.70;0.45;;;32.30;64.00;;;;;;5082098;28;20198;-83
2023/07/04 10:32:42;;;;;;;0.70;0.60;;;32.40;64.00;;;;;;5078515;28;20199;-85
2023/07/04 10:35:14;;;;;;;0.60;0.60;;;32.40;63.30;;;;;;5084109;28;20195;-83
2023/07/04 10:37:46;;;;;;;0.77;0.77;;;32.40;61.70;;;;;;5080409;28;20197;-84
2023/07/04 10:40:18;;;;;;;0.45;0.40;;;32.60;62.20;;;;;;5079628;28;20729;-83
2023/07/04 10:42:53;;;;;;;0.52;0.52;;;32.60;61.10;;;;;;5079423;28;20276;-83
2023/07/04 10:45:24;;;;;;;2.55;1.52;;;32.70;61.70;;;;;;5087567;28;20181;-82
2023/07/04 10:47:55;;;;;;;1.85;1.10;;;32.80;61.50;;;;;;5085492;27;20209;-83
2023/07/04 10:50:27;;;;;;;0.43;0.32;;;32.90;61.50;;;;;;5088633;27;20284;-82
2023/07/04 10:52:55;;;;;;;0.98;0.80;;;33.00;61.80;;;;;;5084187;28;20711;-83
2023/07/04 10:55:35;;;;;;;1.23;0.90;;;33.00;60.40;;;;;;5084845;27;20204;-84
2023/07/04 10:58:07;;;;;;;1.67;0.60;;;33.10;59.70;;;;;;5086990;27;20281;-84
2023/07/04 11:00:41;;;;;;;1.60;0.88;;;33.20;59.70;;;;;;5082062;28;22854;-84
2023/07/04 11:03:15;;;;;;;1.30;0.82;;;33.20;59.80;;;;;;5088463;27;20712;-84
2023/07/04 11:05:49;;;;;;;1.15;1.05;;;33.20;59.30;;;;;;5087989;28;20196;-83
2023/07/04 11:08:20;;;;;;;0.73;0.73;;;33.20;59.30;;;;;;5082523;28;20233;-83
2023/07/04 11:10:52;;;;;;;1.52;1.15;;;33.30;59.40;;;;;;5087438;28;20229;-85
2023/07/04 11:13:24;;;;;;;0.50;0.50;;;33.40;59.90;;;;;;5084522;27;20251;-84
2023/07/04 11:15:57;;;;;;;1.33;0.77;;;33.40;58.80;;;;;;5085993;27;20190;-82
2023/07/04 11:18:29;;;;;;;2.72;0.80;;;33.40;58.50;;;;;;5083675;28;20198;-83
2023/07/04 11:21:08;;;;;;;0.43;0.43;;;33.50;58.90;;;;;;5086428;28;20212;-83
2023/07/04 11:23:51;;;;;;;1.77;1.23;;;33.60;59.10;;;;;;5082377;28;20193;-84
2023/07/04 11:26:42;;;;;;;0.77;0.57;;;33.70;58.50;;;;;;5084696;27;20281;-84
2023/07/04 11:29:18;;;;;;;0.98;0.88;;;33.70;58.00;;;;;;5085031;28;20225;-83
2023/07/04 11:32:11;;;;;;;2.35;0.85;;;33.80;58.60;;;;;;5082202;27;20192;-83
2023/07/04 11:34:48;;;;;;;0.70;0.70;;;33.80;58.20;;;;;;5080195;27;20190;-83
2023/07/04 11:37:25;;;;;;;1.35;0.88;;;33.90;57.50;;;;;;5084037;28;20293;-83
2023/07/04 11:39:57;;;;;;;0.40;0.40;;;33.90;56.90;;;;;;5085394;28;20373;-84
2023/07/04 11:42:39;;;;;;;1.70;0.60;;;33.90;57.10;;;;;;5084516;27;20224;-83
2023/07/04 11:45:13;;;;;;;0.73;0.70;;;33.90;57.40;;;;;;5084284;28;20186;-85
2023/07/04 11:47:44;;;;;;;0.55;0.50;;;34.00;57.00;;;;;;5083378;28;20196;-84
2023/07/04 11:50:17;;;;;;;0.40;0.40;;;34.00;57.50;;;;;;5084539;27;20198;-83
2023/07/04 11:52:56;;;;;;;0.77;0.77;;;34.10;57.60;;;;;;5082650;28;21166;-84
2023/07/04 11:55:30;;;;;;;0.60;0.60;;;34.10;57.60;;;;;;5083524;27;20664;-84
2023/07/04 11:58:21;;;;;;;1.10;0.88;;;34.20;57.70;;;;;;5083596;28;20319;-85
2023/07/04 12:01:06;;;;;;;0.57;0.57;;;34.10;54.80;;;;;;5084242;28;20196;-82
2023/07/04 12:03:58;;;;;;;1.95;0.63;;;34.20;56.30;;;;;;5087198;28;20198;-85
2023/07/04 12:06:57;;;;;;;1.45;1.35;;;34.30;56.60;;;;;;5084393;28;20340;-84
2023/07/04 12:09:44;;;;;;;0.77;0.70;;;34.30;56.80;;;;;;5077979;28;20229;-83
2023/07/04 12:12:22;;;;;;;0.95;0.80;;;34.30;56.70;;;;;;5081181;28;20193;-83
2023/07/04 12:15:00;;;;;;;1.52;0.93;;;34.40;56.90;;;;;;5083704;28;20190;-83
2023/07/04 12:17:28;;;;;;;0.93;0.73;;;34.50;56.90;;;;;;5080619;28;20294;-85
2023/07/04 12:20:08;;;;;;;9.48;0.77;;;34.50;57.30;;;;;;5084021;27;20636;-85
2023/07/04 12:22:36;;;;;;;0.52;0.50;;;34.70;57.50;;;;;;5081271;27;20544;-83
2023/07/04 12:25:09;;;;;;;0.55;0.55;;;34.70;57.10;;;;;;5085701;28;20202;-83
2023/07/04 12:27:41;;;;;;;1.95;0.50;;;34.90;57.30;;;;;;5084124;28;20305;-85
2023/07/04 12:30:13;;;;;;;0.73;0.50;;;34.90;56.80;;;;;;5083809;28;20214;-85
2023/07/04 12:32:42;;;;;;;0.60;0.60;;;35.00;56.80;;;;;;5083317;27;20556;-85
2023/07/04 12:35:16;;;;;;;0.70;0.70;;;35.10;56.50;;;;;;5084481;27;20209;-85
2023/07/04 12:37:49;;;;;;;0.50;0.43;;;35.20;56.40;;;;;;5083455;28;20193;-84
2023/07/04 12:40:20;;;;;;;0.52;0.52;;;35.20;56.10;;;;;;5086748;28;20208;-86
2023/07/04 12:42:49;;;;;;;0.85;0.55;;;35.10;56.10;;;;;;5082527;27;20194;-84
2023/07/04 12:45:22;;;;;;;1.52;0.55;;;35.00;55.30;;;;;;5084673;28;20590;-88
2023/07/04 12:47:53;;;;;;;2.03;1.27;;;34.90;55.40;;;;;;5082589;28;20587;-83
2023/07/04 12:50:25;;;;;;;0.60;0.50;;;34.90;55.70;;;;;;5084526;28;20196;-82
2023/07/04 12:52:54;;;;;;;1.02;0.88;;;35.00;55.60;;;;;;5080960;28;20237;-82
2023/07/04 12:55:27;;;;;;;0.52;0.52;;;35.10;55.50;;;;;;5083071;28;21025;-83
2023/07/04 12:57:56;;;;;;;0.90;0.70;;;35.20;55.50;;;;;;5082514;28;20761;-83
2023/07/04 13:00:29;;;;;;;0.90;0.65;;;35.30;55.60;;;;;;5083217;28;20209;-82
2023/07/04 13:02:59;;;;;;;3.53;0.95;;;35.30;55.30;;;;;;5088619;28;20658;-84
2023/07/04 13:05:40;;;;;;;1.02;0.70;;;35.40;55.30;;;;;;5082142;28;20289;-83
2023/07/04 13:08:12;;;;;;;0.50;0.50;;;35.30;55.00;;;;;;5080346;28;20228;-84
2023/07/04 13:10:41;;;;;;;1.42;1.23;;;35.30;54.70;;;;;;5083554;27;20201;-84